Lawhon, Louisiana
Current Conditions -  °F | °C
As of 8:16 PM on Saturday 22 Nov 2014 (Local Time) from KMNE Reporting Station
Broken Clouds Broken Clouds  
Wind Chill: 64°   Ceiling: 2800
Heat Index: 64°   Visibility: 10mi
Dew Point: 57°   Wind: 12mph
Humidity: 77%   Direction: 120°ESE
Pressure: 29.89"   Gusts: NA
Location:  32.3153°N, 93.2953°W
Report Text: KMNE 230216Z AUTO 12010KT 10SM BKN028 18/14 A2989 RMK AO2
Loading
Personal Weather Stations






























Interactive Weather Map New forecast layout! Learn more

10-Day Weather Forecast

Advertisements
Track Severe Weather on mobile